Colstrip, MT

4:28 PM MDT on July 23, 2016 (GMT -0600)
Water Plant | | Change Station
Active Advisory: Fire Weather Warning Active Notice: Record Report

Elev 3255 ft 45.89 °N, 106.63 °W | Updated 6 minutes ago

Partly Cloudy
Partly Cloudy
81.9 °F
Feels Like 80 °F
N
7.0
Wind Variable Wind from NW
Gusts 14.0 mph

Today
High -- | Low -- °F
--% Chance of Precip.
Yesterday
High -- | Low -- °F
Precip. -- in
Pressure 29.88 in
Visibility 10.0 miles
Clouds Few 9000 ft
Heat Index 80 °F
Dew Point 45 °F
Humidity 27%
Rainfall 0.00 in
Snow Depth Not available.
5:39 AM 8:45 PM
Waning Gibbous, 82% visible
METAR KMLS 232153Z AUTO 31021G26KT 10SM FEW090 31/04 A2995 RMK AO2 PK WND 29032/2138 SLP117 T03060044
Pressure 29.88 in
Visibility 10.0 miles
Clouds Few 9000 ft
Heat Index 80 °F
Dew Point 45 °F
Humidity 27%
Rainfall 0.00 in
Snow Depth Not available.
5:39 AM 8:45 PM
Waning Gibbous, 82% visible
METAR KMLS 232153Z AUTO 31021G26KT 10SM FEW090 31/04 A2995 RMK AO2 PK WND 29032/2138 SLP117 T03060044

10-Day Weather Forecast

Almanac

Astronomy

Jul. 23, 2016 Rise Set
Actual Time
Civil Twilight
Nautical Twilight
Astronomical Twilight
Moon
Length of Visible Light
Length of Day
Tomorrow will be .
, % of the Moon is Illuminated

Today's Extremes

State Highs State Lows

Community

WunderPhotos

Upload Photos

1,926,948 photos uploaded!

WunderBlog® & News

Nearby

Air Quality

  Air Quality AQ Index Pollutant
Not available.

Snow Depth

Station Depth Elevation

Earthquake Activity

City Distance Mag. Time & Date
Minimum magnitude displayed is 2.5.

Coastal Water Temperatures

Place Temperature

Stations

Nearby Weather Stations

Station Location Temp. Windchill Dew Point Humidity Wind Precip. Elev Updated Type
                   

Watches & Warnings

Fire Weather Warning
Issued: 2:45 PM MDT Jul. 23, 2016 – National Weather Service

... Red flag warning remains in effect until 9 PM MDT this
evening...

* impacts: low humidities and strong gusty winds will create
erratic fire behavior.

* Affected area:
   in south central Mt fire zone... .129.
   In southeast Mt fire zones... 131... 132.
   In southeast Mt and northwest SD fire zone... .133.

* Counties affected:
   in northwest SD... Harding.
   In south central Mt... Big Horn... Carbon... Yellowstone.
   In southeast Mt... Carter... Custer... Fallon... Powder River
                     Rosebud... Treasure.

* Wind: northwest 20 to 25 mph with gusts up to 40 mph.

* Humidity: as low as 15 to 20 percent.

Precautionary/preparedness actions...

A red flag warning means that critical fire weather conditions are
either occurring now... or will shortly. A combination of strong
winds... low relative humidity... and warm temperatures can
contribute to extreme fire behavior.